createdAt,value
2018-07-11T00:01:42.555Z,80.04
2018-07-11T00:04:10.959Z,80.70
2018-07-11T00:06:39.333Z,80.80
2018-07-11T00:09:07.725Z,79.95
2018-07-11T00:11:36.123Z,80.30
2018-07-11T00:14:04.527Z,80.90
2018-07-11T00:16:32.964Z,80.84
2018-07-11T00:19:01.364Z,80.04
2018-07-11T00:21:29.738Z,80.99
2018-07-11T00:23:58.158Z,80.87
2018-07-11T00:26:26.538Z,81.69
2018-07-11T00:28:54.921Z,81.76
2018-07-11T00:31:23.326Z,82.01
2018-07-11T00:33:51.706Z,81.71
2018-07-11T00:36:20.114Z,81.33
2018-07-11T00:38:48.486Z,81.57
2018-07-11T00:41:16.893Z,81.79
2018-07-11T00:43:45.275Z,81.73
2018-07-11T00:46:16.046Z,81.42
2018-07-11T00:48:44.442Z,82.37
2018-07-11T00:51:12.841Z,81.91
2018-07-11T00:53:41.234Z,82.34
2018-07-11T00:56:09.635Z,82.59
2018-07-11T00:58:40.498Z,82.36
2018-07-11T01:01:15.299Z,81.84
2018-07-11T01:03:53.065Z,82.52
2018-07-11T01:06:21.513Z,81.79
2018-07-11T01:08:53.282Z,82.23
2018-07-11T01:11:22.900Z,82.21
2018-07-11T01:13:51.577Z,82.49
2018-07-11T01:16:20.870Z,82.83
2018-07-11T01:19:09.357Z,83.06
2018-07-11T01:21:38.169Z,83.26
2018-07-11T01:24:06.584Z,83.21
2018-07-11T01:26:36.979Z,82.02
2018-07-11T01:29:05.747Z,82.27
2018-07-11T01:31:34.149Z,81.89
2018-07-11T01:34:02.562Z,81.18
2018-07-11T01:36:31.419Z,81.53
2018-07-11T01:39:00.690Z,81.35
2018-07-11T01:41:29.146Z,81.85
2018-07-11T01:43:57.538Z,82.07
2018-07-11T01:46:30.086Z,82.26
2018-07-11T01:48:58.458Z,81.86
2018-07-11T01:51:38.281Z,82.72
2018-07-11T01:54:06.663Z,83.33
2018-07-11T01:56:35.062Z,82.94
2018-07-11T01:59:03.441Z,82.27
2018-07-11T02:01:31.845Z,82.24
2018-07-11T02:04:00.231Z,82.03
2018-07-11T02:06:28.634Z,82.12
2018-07-11T02:08:57.009Z,82.52
2018-07-11T02:11:25.426Z,82.64
2018-07-11T02:13:53.826Z,81.87
2018-07-11T02:16:22.226Z,81.63
2018-07-11T02:18:50.616Z,81.21
2018-07-11T02:21:19.026Z,81.43
2018-07-11T02:23:47.419Z,81.50
2018-07-11T02:26:15.827Z,81.50
2018-07-11T02:28:44.214Z,82.72
2018-07-11T02:31:12.621Z,82.28
2018-07-11T02:33:41.003Z,82.51
2018-07-11T02:36:09.412Z,82.00
2018-07-11T02:38:37.791Z,83.10
2018-07-11T02:41:06.189Z,82.88
2018-07-11T02:43:34.567Z,83.25
2018-07-11T02:46:02.979Z,82.95
2018-07-11T02:48:31.364Z,83.45
2018-07-11T02:50:59.775Z,83.73
2018-07-11T02:53:28.166Z,82.91
2018-07-11T02:55:56.579Z,83.61
2018-07-11T02:58:24.957Z,83.11
2018-07-11T03:00:53.359Z,83.70
2018-07-11T03:03:21.744Z,83.37
2018-07-11T03:05:50.171Z,83.25
2018-07-11T03:08:18.940Z,83.27
2018-07-11T03:10:47.647Z,84.03
2018-07-11T03:13:19.863Z,83.14
2018-07-11T03:15:48.297Z,83.09
2018-07-11T03:18:16.678Z,82.73
2018-07-11T03:20:45.049Z,83.38
2018-07-11T03:23:13.446Z,83.53
2018-07-11T03:25:41.840Z,82.81
2018-07-11T03:28:10.249Z,83.67
2018-07-11T03:30:38.618Z,82.93
2018-07-11T03:33:07.399Z,82.77
2018-07-11T03:35:35.775Z,83.00
2018-07-11T03:38:04.178Z,83.18
2018-07-11T03:40:32.558Z,83.60
2018-07-11T03:43:00.963Z,83.73
2018-07-11T03:45:29.347Z,83.99
2018-07-11T03:47:57.751Z,83.47
2018-07-11T03:50:26.117Z,84.14
2018-07-11T03:52:54.513Z,84.47
2018-07-11T03:55:22.891Z,84.53
2018-07-11T03:57:51.295Z,83.80
2018-07-11T04:00:19.797Z,84.87
2018-07-11T04:02:48.181Z,84.19
2018-07-11T04:05:16.570Z,84.93
2018-07-11T04:07:44.977Z,84.46
2018-07-11T04:10:13.373Z,84.13
2018-07-11T04:12:41.772Z,84.77
2018-07-11T04:15:10.146Z,84.34
2018-07-11T04:17:38.538Z,84.19
2018-07-11T04:20:07.074Z,84.39
2018-07-11T04:22:35.479Z,84.62
2018-07-11T04:25:03.860Z,84.80
2018-07-11T04:27:32.262Z,85.18
2018-07-11T04:30:00.719Z,85.17
2018-07-11T04:32:29.193Z,84.69
2018-07-11T04:34:57.565Z,83.77
2018-07-11T04:37:25.964Z,84.59
2018-07-11T04:39:54.339Z,84.13
2018-07-11T04:42:22.773Z,83.24
2018-07-11T04:44:51.135Z,83.31
2018-07-11T04:47:19.543Z,83.79
2018-07-11T04:49:47.913Z,83.81
2018-07-11T04:52:16.303Z,84.41
2018-07-11T04:54:44.683Z,83.67
2018-07-11T04:57:13.091Z,84.41
2018-07-11T04:59:41.527Z,84.02
2018-07-11T05:02:09.918Z,83.85
2018-07-11T05:04:38.314Z,82.85
2018-07-11T05:07:06.727Z,82.92
2018-07-11T05:09:35.149Z,82.83
2018-07-11T05:12:03.547Z,83.50
2018-07-11T05:14:31.923Z,83.72
2018-07-11T05:17:00.315Z,83.74
2018-07-11T05:19:28.699Z,82.88
2018-07-11T05:21:57.067Z,83.40
2018-07-11T05:24:25.463Z,83.52
2018-07-11T05:26:53.836Z,83.69
2018-07-11T05:29:22.240Z,83.01
2018-07-11T05:31:50.751Z,83.17
2018-07-11T05:34:19.146Z,83.41
2018-07-11T05:36:47.509Z,84.23
2018-07-11T05:39:15.897Z,84.02
2018-07-11T05:41:44.266Z,83.91
2018-07-11T05:44:12.663Z,83.99
2018-07-11T05:46:41.061Z,83.54
2018-07-11T05:49:09.508Z,83.50
2018-07-11T05:51:37.887Z,84.35
2018-07-11T05:54:06.283Z,83.34
2018-07-11T05:56:34.748Z,83.63
2018-07-11T05:59:03.139Z,83.89
2018-07-11T06:01:31.527Z,83.54
2018-07-11T06:03:59.933Z,83.96
2018-07-11T06:06:28.314Z,83.75
2018-07-11T06:08:56.707Z,83.46
2018-07-11T06:11:25.755Z,83.08
2018-07-11T06:13:54.670Z,82.97
2018-07-11T06:16:23.693Z,83.20
2018-07-11T06:18:52.051Z,83.71
2018-07-11T06:21:23.016Z,83.25
2018-07-11T06:23:51.420Z,83.06
2018-07-11T06:26:19.795Z,83.58
2018-07-11T06:28:48.192Z,83.55
2018-07-11T06:31:16.579Z,83.02
2018-07-11T06:33:45.026Z,83.21
2018-07-11T06:36:13.374Z,83.21
2018-07-11T06:38:41.771Z,82.05
2018-07-11T06:41:10.162Z,82.78
2018-07-11T06:43:38.550Z,82.71
2018-07-11T06:46:07.027Z,81.60
2018-07-11T06:48:35.422Z,81.48
2018-07-11T06:51:03.822Z,81.44
2018-07-11T06:53:32.228Z,81.93
2018-07-11T06:56:00.646Z,81.11
2018-07-11T06:58:29.055Z,81.98
2018-07-11T07:00:57.482Z,81.39
2018-07-11T07:03:25.878Z,82.07
2018-07-11T07:05:54.275Z,81.39
2018-07-11T07:08:22.666Z,81.81
2018-07-11T07:10:51.061Z,81.62
2018-07-11T07:13:19.506Z,81.88
2018-07-11T07:15:47.919Z,82.29
2018-07-11T07:18:16.343Z,81.79
2018-07-11T07:20:44.717Z,82.58
2018-07-11T07:23:13.089Z,82.04
2018-07-11T07:25:41.509Z,81.42
2018-07-11T07:28:09.888Z,81.86
2018-07-11T07:30:38.517Z,81.90
2018-07-11T07:33:06.895Z,81.69
2018-07-11T07:35:35.311Z,82.27
2018-07-11T07:38:03.691Z,81.29
2018-07-11T07:40:32.095Z,81.70
2018-07-11T07:43:00.471Z,81.58
2018-07-11T07:45:28.964Z,81.10
2018-07-11T07:47:58.978Z,80.61
2018-07-11T07:50:27.380Z,80.77
2018-07-11T07:52:55.892Z,79.72
2018-07-11T07:55:24.222Z,80.18
2018-07-11T07:57:52.602Z,79.79
2018-07-11T08:00:21.030Z,79.70
2018-07-11T08:02:49.498Z,79.98
2018-07-11T08:05:17.886Z,79.80
2018-07-11T08:07:46.258Z,79.92
2018-07-11T08:10:14.675Z,79.54
2018-07-11T08:12:43.104Z,79.98
2018-07-11T08:15:11.474Z,79.64
2018-07-11T08:17:39.870Z,80.09
2018-07-11T08:20:08.298Z,80.00
2018-07-11T08:23:17.790Z,78.89
2018-07-11T08:25:58.678Z,78.89
2018-07-11T08:29:38.181Z,78.72
2018-07-11T08:34:24.003Z,78.44
2018-07-11T08:37:08.482Z,77.58
2018-07-11T08:41:03.899Z,77.36
2018-07-11T08:43:52.311Z,77.49
2018-07-11T08:47:04.667Z,77.22
2018-07-11T08:49:44.438Z,77.12
2018-07-11T08:52:31.858Z,76.98
2018-07-11T08:55:09.819Z,75.94
2018-07-11T08:58:47.502Z,75.84
2018-07-11T09:02:32.783Z,75.09
2018-07-11T09:07:17.917Z,75.66
2018-07-11T09:10:15.626Z,74.53
2018-07-11T09:13:55.530Z,73.59
2018-07-11T09:17:18.694Z,72.87
2018-07-11T09:21:03.230Z,73.02
2018-07-11T09:24:52.230Z,71.26
2018-07-11T09:27:20.631Z,71.10
2018-07-11T09:29:49.469Z,71.04
2018-07-11T09:32:17.893Z,70.58
2018-07-11T09:34:46.638Z,70.87
2018-07-11T09:37:15.034Z,70.50
2018-07-11T09:39:43.915Z,69.20
2018-07-11T09:42:12.305Z,68.77
2018-07-11T09:44:40.869Z,68.41
2018-07-11T09:47:29.349Z,69.15
2018-07-11T09:49:58.015Z,67.89
2018-07-11T09:52:26.425Z,67.97
2018-07-11T09:54:54.809Z,68.02
2018-07-11T09:57:24.241Z,68.03
2018-07-11T09:59:52.658Z,66.33
2018-07-11T10:02:21.064Z,66.75
2018-07-11T10:04:49.445Z,66.24
2018-07-11T10:07:17.814Z,66.65
2018-07-11T10:09:46.239Z,67.07
2018-07-11T10:12:14.618Z,67.41
2018-07-11T10:14:43.121Z,67.30
2018-07-11T10:17:11.495Z,66.15
2018-07-11T10:19:39.899Z,67.30
2018-07-11T10:22:08.291Z,67.69
2018-07-11T10:24:36.682Z,67.05
2018-07-11T10:27:05.107Z,67.32
2018-07-11T10:29:33.530Z,65.96
2018-07-11T10:32:01.906Z,66.36
2018-07-11T10:34:30.298Z,67.12
2018-07-11T10:36:58.662Z,66.51
2018-07-11T10:39:27.059Z,65.81
2018-07-11T10:41:55.440Z,65.73
2018-07-11T10:44:23.835Z,65.97
2018-07-11T10:46:56.583Z,65.55
2018-07-11T10:49:25.010Z,66.54
2018-07-11T10:51:54.177Z,65.73
2018-07-11T10:54:22.572Z,65.96
2018-07-11T10:56:50.967Z,65.09
2018-07-11T10:59:19.359Z,65.50
2018-07-11T11:01:47.739Z,66.05
2018-07-11T11:04:19.477Z,65.59
2018-07-11T11:06:47.853Z,66.62
2018-07-11T11:09:16.251Z,66.66
2018-07-11T11:11:44.662Z,66.01
2018-07-11T11:14:13.062Z,66.97
2018-07-11T11:16:41.451Z,67.06
2018-07-11T11:19:09.841Z,67.22
2018-07-11T11:21:38.236Z,67.26
2018-07-11T11:24:07.049Z,67.09
2018-07-11T11:26:35.417Z,67.93
2018-07-11T11:29:03.818Z,68.25
2018-07-11T11:31:32.193Z,68.41
2018-07-11T11:34:00.623Z,67.54
2018-07-11T11:36:28.989Z,67.85
2018-07-11T11:38:57.386Z,67.24
2018-07-11T11:41:25.776Z,67.46
2018-07-11T11:43:54.189Z,66.57
2018-07-11T11:46:22.562Z,66.65
2018-07-11T11:48:50.953Z,66.59
2018-07-11T11:51:19.346Z,66.87
2018-07-11T11:53:47.713Z,66.25
2018-07-11T11:56:16.099Z,65.36
2018-07-11T11:58:44.470Z,65.93
2018-07-11T12:01:12.857Z,65.21
2018-07-11T12:03:41.225Z,64.88
2018-07-11T12:06:09.661Z,65.33
2018-07-11T12:08:38.035Z,65.09
2018-07-11T12:11:06.541Z,64.55
2018-07-11T12:13:34.926Z,64.77
2018-07-11T12:16:05.132Z,64.22
2018-07-11T12:18:33.501Z,63.71
2018-07-11T12:21:01.982Z,64.54
2018-07-11T12:23:30.322Z,63.62
2018-07-11T12:26:04.770Z,63.49
2018-07-11T12:28:33.147Z,64.58
2018-07-11T12:31:01.695Z,64.17
2018-07-11T12:33:30.348Z,64.92
2018-07-11T12:35:58.786Z,64.69
2018-07-11T12:38:27.363Z,65.28
2018-07-11T12:40:56.382Z,65.91
2018-07-11T12:43:25.477Z,66.67
2018-07-11T12:45:53.866Z,65.53
2018-07-11T12:48:27.599Z,65.83
2018-07-11T12:50:56.342Z,66.47
2018-07-11T12:53:24.721Z,67.34
2018-07-11T12:55:53.129Z,67.94
2018-07-11T12:58:21.535Z,67.73
2018-07-11T13:00:50.473Z,67.41
2018-07-11T13:03:19.242Z,67.87
2018-07-11T13:05:47.634Z,68.34
2018-07-11T13:08:18.250Z,68.90
2018-07-11T13:10:46.674Z,69.40
2018-07-11T13:13:15.068Z,69.33
2018-07-11T13:15:43.462Z,69.75
2018-07-11T13:18:11.856Z,71.26
2018-07-11T13:20:40.262Z,71.35
2018-07-11T13:23:08.641Z,71.40
2018-07-11T13:25:37.091Z,71.18
2018-07-11T13:28:05.463Z,71.00
2018-07-11T13:30:33.861Z,71.33
2018-07-11T13:33:02.242Z,71.80
2018-07-11T13:35:30.774Z,71.08
2018-07-11T13:37:59.158Z,71.41
2018-07-11T13:40:27.558Z,71.66
2018-07-11T13:42:55.933Z,71.83
2018-07-11T13:45:24.367Z,73.04
2018-07-11T13:47:58.259Z,73.57
2018-07-11T13:50:26.670Z,73.34
2018-07-11T13:52:55.331Z,73.65
2018-07-11T13:55:23.741Z,73.56
2018-07-11T13:57:52.130Z,73.02
2018-07-11T14:00:20.676Z,72.81
2018-07-11T14:02:49.770Z,72.86
2018-07-11T14:05:18.151Z,72.61
2018-07-11T14:07:46.562Z,72.70
2018-07-11T14:10:14.973Z,72.42
2018-07-11T14:12:43.444Z,73.95
2018-07-11T14:15:11.830Z,73.08
2018-07-11T14:17:40.719Z,73.20
2018-07-11T14:20:09.700Z,73.32
2018-07-11T14:22:38.870Z,74.11
2018-07-11T14:25:07.331Z,74.01
2018-07-11T14:27:42.717Z,74.81
2018-07-11T14:30:11.567Z,75.13
2018-07-11T14:32:45.545Z,73.50
2018-07-11T14:35:14.567Z,74.14
2018-07-11T14:37:42.982Z,73.75
2018-07-11T14:40:11.525Z,74.63
2018-07-11T14:42:40.187Z,73.42
2018-07-11T14:45:08.605Z,73.10
2018-07-11T14:47:42.253Z,72.33
2018-07-11T14:50:10.632Z,73.86
2018-07-11T14:52:39.134Z,72.98
2018-07-11T14:55:07.509Z,73.39
2018-07-11T14:57:36.147Z,73.76
2018-07-11T15:00:04.738Z,72.08
2018-07-11T15:02:33.142Z,72.92
2018-07-11T15:05:01.546Z,72.79
2018-07-11T15:07:29.977Z,73.24
2018-07-11T15:09:58.381Z,72.53
2018-07-11T15:12:26.786Z,72.62
2018-07-11T15:14:55.158Z,71.74
2018-07-11T15:17:23.789Z,71.72
2018-07-11T15:19:52.353Z,70.75
2018-07-11T15:22:20.751Z,69.91
2018-07-11T15:24:49.705Z,69.49
2018-07-11T15:27:18.121Z,68.30
2018-07-11T15:29:46.501Z,69.81
2018-07-11T15:32:14.908Z,70.29
2018-07-11T15:34:43.559Z,70.48
2018-07-11T15:37:12.166Z,70.64
2018-07-11T15:39:40.954Z,69.51
2018-07-11T15:42:09.566Z,70.04
2018-07-11T15:44:37.949Z,70.27
2018-07-11T15:47:06.699Z,69.36
2018-07-11T15:49:35.087Z,69.05
2018-07-11T15:52:03.506Z,68.07
2018-07-11T15:54:33.706Z,68.29
2018-07-11T15:57:03.047Z,67.90
2018-07-11T15:59:33.606Z,68.25
2018-07-11T16:02:01.996Z,67.81
2018-07-11T16:04:36.798Z,67.97
2018-07-11T16:07:07.504Z,68.44
2018-07-11T16:09:47.447Z,68.32
2018-07-11T16:12:15.950Z,68.32
2018-07-11T16:14:45.371Z,68.71
2018-07-11T16:17:13.811Z,69.55
2018-07-11T16:19:42.201Z,68.12
2018-07-11T16:22:10.618Z,68.92
2018-07-11T16:24:39.010Z,68.72
2018-07-11T16:27:07.385Z,68.25
2018-07-11T16:29:35.773Z,68.50
2018-07-11T16:32:04.143Z,67.77
2018-07-11T16:34:32.647Z,66.87
2018-07-11T16:37:01.018Z,66.19
2018-07-11T16:39:29.410Z,66.57
2018-07-11T16:41:57.787Z,66.08
2018-07-11T16:44:26.187Z,65.36
2018-07-11T16:46:54.554Z,64.21
2018-07-11T16:49:22.954Z,62.68
2018-07-11T16:51:51.334Z,61.83
2018-07-11T16:54:20.632Z,60.94
2018-07-11T16:56:49.015Z,61.35
2018-07-11T16:59:17.617Z,61.77
2018-07-11T17:01:53.169Z,62.94
2018-07-11T17:04:23.713Z,62.30
2018-07-11T17:06:52.633Z,62.76
2018-07-11T17:09:21.043Z,63.37
2018-07-11T17:11:51.594Z,62.40
2018-07-11T17:14:22.159Z,62.62
2018-07-11T17:16:59.867Z,62.66
2018-07-11T17:19:43.081Z,62.05
2018-07-11T17:22:11.467Z,62.49
2018-07-11T17:24:43.719Z,63.98
2018-07-11T17:27:13.578Z,63.41
2018-07-11T17:29:42.131Z,63.78
2018-07-11T17:32:11.770Z,63.68
2018-07-11T17:34:40.939Z,64.85
2018-07-11T17:37:11.294Z,65.32
2018-07-11T17:39:48.569Z,65.72
2018-07-11T17:42:17.482Z,64.67
2018-07-11T17:44:49.506Z,65.22
2018-07-11T17:47:19.258Z,65.27
2018-07-11T17:49:54.323Z,65.40
2018-07-11T17:52:25.125Z,66.17
2018-07-11T17:55:13.504Z,65.67
2018-07-11T17:58:00.210Z,65.93
2018-07-11T18:01:04.977Z,66.89
2018-07-11T18:04:42.274Z,66.34
2018-07-11T18:07:14.821Z,66.63
2018-07-11T18:09:56.240Z,66.59
2018-07-11T18:12:27.254Z,67.16
2018-07-11T18:17:07.102Z,67.18
2018-07-11T18:20:16.710Z,67.81
2018-07-11T18:23:23.553Z,67.82
2018-07-11T18:26:26.772Z,68.27
2018-07-11T18:29:09.458Z,68.10
2018-07-11T18:32:50.771Z,68.50
2018-07-11T18:35:30.817Z,69.93
2018-07-11T18:38:23.977Z,69.45
2018-07-11T18:42:07.289Z,70.17
2018-07-11T18:44:50.364Z,69.24
2018-07-11T18:47:59.172Z,69.35
2018-07-11T18:50:35.538Z,70.51
2018-07-11T18:53:13.283Z,69.98
2018-07-11T18:56:26.251Z,71.41
2018-07-11T18:59:09.287Z,71.07
2018-07-11T19:01:48.555Z,71.38
2018-07-11T19:04:34.831Z,70.89
2018-07-11T19:07:12.477Z,71.65
2018-07-11T19:09:50.585Z,71.93
2018-07-11T19:12:34.049Z,72.11
2018-07-11T19:15:07.447Z,72.29
2018-07-11T19:19:51.511Z,71.76
2018-07-11T19:22:45.667Z,72.75
2018-07-11T19:25:34.227Z,73.64
2018-07-11T19:28:13.655Z,72.75
2018-07-11T19:30:55.657Z,72.64
2018-07-11T19:33:35.526Z,73.45
2018-07-11T19:36:14.721Z,73.98
2018-07-11T19:38:52.330Z,73.75
2018-07-11T19:41:26.237Z,74.42
2018-07-11T19:44:05.810Z,73.79
2018-07-11T19:46:42.866Z,73.90
2018-07-11T19:49:24.932Z,73.84
2018-07-11T19:52:00.311Z,75.08
2018-07-11T19:54:35.882Z,75.66
2018-07-11T19:57:04.304Z,75.62
2018-07-11T19:59:32.724Z,74.37
2018-07-11T20:02:01.246Z,74.64
2018-07-11T20:04:29.641Z,74.59
2018-07-11T20:06:58.087Z,75.03
2018-07-11T20:09:26.461Z,75.69
2018-07-11T20:11:54.890Z,75.84
2018-07-11T20:14:23.289Z,76.24
2018-07-11T20:16:51.911Z,76.54
2018-07-11T20:19:20.316Z,75.74
2018-07-11T20:21:48.720Z,75.71
2018-07-11T20:24:17.139Z,76.72
2018-07-11T20:26:45.559Z,76.87
2018-07-11T20:29:13.954Z,76.36
2018-07-11T20:31:42.355Z,77.08
2018-07-11T20:34:10.730Z,77.33
2018-07-11T20:36:39.126Z,76.96
2018-07-11T20:39:07.528Z,77.60
2018-07-11T20:41:35.922Z,76.93
2018-07-11T20:44:04.408Z,77.47
2018-07-11T20:46:33.424Z,76.62
2018-07-11T20:49:06.649Z,76.76
2018-07-11T20:51:35.037Z,77.56
2018-07-11T20:54:03.518Z,77.45
2018-07-11T20:56:31.988Z,77.29
2018-07-11T20:59:11.583Z,76.93
2018-07-11T21:02:50.967Z,76.57
2018-07-11T21:08:09.639Z,76.43
2018-07-11T21:10:47.405Z,77.03
2018-07-11T21:15:30.741Z,77.66
2018-07-11T21:18:16.506Z,77.09
2018-07-11T21:20:44.913Z,78.15
2018-07-11T21:23:13.305Z,78.11
2018-07-11T21:25:41.702Z,77.53
2018-07-11T21:28:10.099Z,78.14
2018-07-11T21:30:38.465Z,78.15
2018-07-11T21:33:06.875Z,77.43
2018-07-11T21:35:35.551Z,77.63
2018-07-11T21:38:03.954Z,78.04
2018-07-11T21:40:32.352Z,77.61
2018-07-11T21:43:00.729Z,77.61
2018-07-11T21:45:29.141Z,77.77
2018-07-11T21:47:57.508Z,77.69
2018-07-11T21:50:25.947Z,77.79
2018-07-11T21:52:54.323Z,78.03
2018-07-11T21:55:22.713Z,78.96
2018-07-11T21:57:51.114Z,79.03
2018-07-11T22:00:30.815Z,79.37
2018-07-11T22:02:59.182Z,79.37
2018-07-11T22:05:28.542Z,78.51
2018-07-11T22:07:57.065Z,79.04
2018-07-11T22:10:25.673Z,79.11
2018-07-11T22:12:54.045Z,79.82
2018-07-11T22:15:22.463Z,80.04
2018-07-11T22:18:02.267Z,79.72
2018-07-11T22:20:31.174Z,79.70
2018-07-11T22:22:58.502Z,80.48
2018-07-11T22:25:25.823Z,80.26
2018-07-11T22:27:53.153Z,80.29
2018-07-11T22:30:20.478Z,80.55
2018-07-11T22:32:47.813Z,80.84
2018-07-11T22:35:15.395Z,80.95
2018-07-11T22:37:42.974Z,80.67
2018-07-11T22:40:10.313Z,80.90
2018-07-11T22:42:38.123Z,81.02
2018-07-11T22:45:05.437Z,81.82
2018-07-11T22:47:33.113Z,81.08
2018-07-11T22:50:02.277Z,81.97
2018-07-11T22:52:31.554Z,81.49
2018-07-11T22:54:58.837Z,82.12
2018-07-11T22:57:26.150Z,81.42
2018-07-11T22:59:53.518Z,81.50
2018-07-11T23:02:20.842Z,82.43
2018-07-11T23:04:48.188Z,81.77
2018-07-11T23:07:15.505Z,81.40
2018-07-11T23:09:42.844Z,81.10
2018-07-11T23:12:10.157Z,81.73
2018-07-11T23:14:39.127Z,82.33
2018-07-11T23:17:06.439Z,82.39
2018-07-11T23:19:33.779Z,82.41
2018-07-11T23:22:01.107Z,81.83
2018-07-11T23:24:28.450Z,82.60
2018-07-11T23:26:55.771Z,81.99
2018-07-11T23:29:23.106Z,82.29
2018-07-11T23:31:50.418Z,82.29
2018-07-11T23:34:17.754Z,82.05
2018-07-11T23:36:45.067Z,82.40
2018-07-11T23:39:12.698Z,82.32
2018-07-11T23:41:40.011Z,82.70
2018-07-11T23:44:07.361Z,82.99
2018-07-11T23:46:34.678Z,82.02
2018-07-11T23:49:02.017Z,82.94
2018-07-11T23:51:29.330Z,82.27
2018-07-11T23:53:56.677Z,82.45
2018-07-11T23:56:23.997Z,82.39
2018-07-11T23:58:51.687Z,82.50
